Time;durP1;ratioP1;P1;durP2;ratioP2;P2;SDS_P1;SDS_P2;PMS_P1;PMS_P2;Temp;Humidity;BMP_temperature;BMP_pressure;BME280_temperature;BME280_humidity;BME280_pressure;Samples;Min_cycle;Max_cycle;Signal;HPM_P1;HPM_P2
2023/03/29 00:02:06;;;;;;;;;8.33;7.33;20.60;33.80;;;;;;111246;1238;53534;-69
2023/03/29 00:04:33;;;;;;;;;10.00;8.75;20.60;33.90;;;;;;111281;1240;50380;-68
2023/03/29 00:07:03;;;;;;;;;12.50;10.00;20.60;33.70;;;;;;111324;1238;49775;-69
2023/03/29 00:09:31;;;;;;;;;12.33;9.00;20.60;33.70;;;;;;111410;1238;45875;-68
2023/03/29 00:11:59;;;;;;;;;9.67;8.67;20.50;33.70;;;;;;111428;1241;56937;-69
2023/03/29 00:14:28;;;;;;;;;11.00;8.00;20.50;33.70;;;;;;111335;1243;53580;-69
2023/03/29 00:16:56;;;;;;;;;9.75;8.00;20.60;34.00;;;;;;111248;1238;50355;-67
2023/03/29 00:19:23;;;;;;;;;11.00;10.00;20.60;34.40;;;;;;111384;1243;49398;-68
2023/03/29 00:21:50;;;;;;;;;13.00;10.00;20.60;35.50;;;;;;111127;1242;45743;-66
2023/03/29 00:24:17;;;;;;;;;10.00;9.00;20.60;35.50;;;;;;111178;1239;55939;-67
2023/03/29 00:26:44;;;;;;;;;12.00;10.00;20.70;35.60;;;;;;111391;1238;54565;-71
2023/03/29 00:29:11;;;;;;;;;10.00;9.00;20.70;35.70;;;;;;111327;1241;49153;-68
2023/03/29 00:31:38;;;;;;;;;14.00;10.75;20.70;36.00;;;;;;111329;1247;50617;-68
2023/03/29 00:34:06;;;;;;;;;12.00;11.00;20.70;36.00;;;;;;111206;1241;45651;-68
2023/03/29 00:36:33;;;;;;;;;11.00;10.00;20.80;36.10;;;;;;111170;1239;56699;-68
2023/03/29 00:38:59;;;;;;;;;11.00;9.75;20.80;36.10;;;;;;111363;1240;54872;-68
2023/03/29 00:41:26;;;;;;;;;12.00;10.00;20.80;36.10;;;;;;111134;1238;49810;-69
2023/03/29 00:43:57;;;;;;;;;10.67;9.00;20.80;36.10;;;;;;111230;1243;49177;-66
2023/03/29 00:46:26;;;;;;;;;12.50;9.50;20.90;36.40;;;;;;111293;1243;46048;-66
2023/03/29 00:48:57;;;;;;;;;11.00;9.00;20.90;36.70;;;;;;111193;1238;55801;-67
2023/03/29 00:51:27;;;;;;;;;12.25;11.00;20.90;36.30;;;;;;111245;1243;53795;-67
2023/03/29 00:53:58;;;;;;;;;11.75;10.00;20.90;36.30;;;;;;111244;1243;48879;-68
2023/03/29 00:56:34;;;;;;;;;12.00;9.00;20.90;36.30;;;;;;111200;1243;49737;-68
2023/03/29 00:59:15;;;;;;;;;11.75;10.00;21.00;36.40;;;;;;111413;1241;46024;-67
2023/03/29 01:01:52;;;;;;;;;11.00;8.25;21.00;36.40;;;;;;111258;1244;55811;-67
2023/03/29 01:04:29;;;;;;;;;10.00;8.75;21.00;36.90;;;;;;111202;1243;53849;-68
2023/03/29 01:07:04;;;;;;;;;13.00;10.00;21.10;36.70;;;;;;111173;1238;50375;-67
2023/03/29 01:09:34;;;;;;;;;10.25;9.00;21.10;37.00;;;;;;111113;1243;51062;-67
2023/03/29 01:12:07;;;;;;;;;13.00;12.00;21.10;36.50;;;;;;111130;1238;46095;-67
2023/03/29 01:14:39;;;;;;;;;10.75;9.75;21.10;36.60;;;;;;111098;1240;55657;-67
2023/03/29 01:17:06;;;;;;;;;11.00;10.00;21.20;36.80;;;;;;111056;1242;53557;-67
2023/03/29 01:19:57;;;;;;;;;11.00;10.00;21.20;36.60;;;;;;111174;1238;49986;-67
2023/03/29 01:22:39;;;;;;;;;14.50;11.00;21.10;36.50;;;;;;111179;1243;49787;-67
2023/03/29 01:25:14;;;;;;;;;12.00;9.33;21.20;36.60;;;;;;111125;1243;45767;-67
2023/03/29 01:27:51;;;;;;;;;10.75;9.00;21.30;36.50;;;;;;111117;1243;55371;-67
2023/03/29 01:30:48;;;;;;;;;12.33;10.00;21.30;36.60;;;;;;111141;1243;53621;-67
2023/03/29 01:33:22;;;;;;;;;11.75;10.50;21.30;37.10;;;;;;111310;1241;49039;-67
2023/03/29 01:36:00;;;;;;;;;9.75;8.75;21.30;36.60;;;;;;111262;1243;49246;-67
2023/03/29 01:38:57;;;;;;;;;13.50;10.00;21.30;36.60;;;;;;111113;1240;45327;-67
2023/03/29 01:41:35;;;;;;;;;10.75;9.25;21.40;36.90;;;;;;111139;1243;55810;-68
2023/03/29 01:44:11;;;;;;;;;10.00;9.00;21.40;36.80;;;;;;111174;1245;54140;-67
2023/03/29 01:46:44;;;;;;;;;12.00;9.00;21.40;37.10;;;;;;111069;1243;50541;-67
2023/03/29 01:49:21;;;;;;;;;11.25;10.00;21.40;36.60;;;;;;111159;1244;48865;-68
2023/03/29 01:52:02;;;;;;;;;10.67;9.00;21.40;36.60;;;;;;111174;1242;46902;-68
2023/03/29 01:54:39;;;;;;;;;12.50;10.50;21.50;36.70;;;;;;111148;1243;55692;-69
2023/03/29 01:57:09;;;;;;;;;12.00;10.75;21.50;36.70;;;;;;111204;1241;55455;-68
2023/03/29 01:59:39;;;;;;;;;10.75;9.25;21.50;36.70;;;;;;111161;1242;50437;-69
2023/03/29 02:02:10;;;;;;;;;13.00;11.00;21.50;36.70;;;;;;111076;1240;48854;-68
2023/03/29 02:04:43;;;;;;;;;11.00;10.00;21.50;36.70;;;;;;111341;1243;47199;-69
2023/03/29 02:07:11;;;;;;;;;11.00;9.50;21.50;36.70;;;;;;111444;1243;55936;-70
2023/03/29 02:09:40;;;;;;;;;11.75;10.00;21.50;36.80;;;;;;111348;1242;54056;-69
2023/03/29 02:12:08;;;;;;;;;11.00;9.50;21.50;36.80;;;;;;111346;1241;49435;-69
2023/03/29 02:14:35;;;;;;;;;11.00;9.25;21.60;37.10;;;;;;111326;1238;49965;-68
2023/03/29 02:17:28;;;;;;;;;12.75;10.50;21.60;36.90;;;;;;111273;1243;46408;-68
2023/03/29 02:20:13;;;;;;;;;12.67;9.67;21.60;36.90;;;;;;111113;1238;55520;-68
2023/03/29 02:22:49;;;;;;;;;10.00;8.67;21.60;37.00;;;;;;111312;1243;54843;-68
2023/03/29 02:25:16;;;;;;;;;10.00;8.75;21.60;37.00;;;;;;111104;1240;50634;-68
2023/03/29 02:27:44;;;;;;;;;10.33;9.00;21.60;36.90;;;;;;111169;1239;50428;-68
2023/03/29 02:30:13;;;;;;;;;11.00;9.25;21.60;36.90;;;;;;111119;1241;46154;-68
2023/03/29 02:32:48;;;;;;;;;13.25;11.00;21.60;37.10;;;;;;111257;1243;56000;-69
2023/03/29 02:35:21;;;;;;;;;13.00;11.75;21.60;37.00;;;;;;111250;1243;54608;-69
2023/03/29 02:37:53;;;;;;;;;10.50;9.00;21.60;36.90;;;;;;111160;1238;49118;-69
2023/03/29 02:40:20;;;;;;;;;10.75;9.00;21.60;37.00;;;;;;111067;1244;50090;-69
2023/03/29 02:42:48;;;;;;;;;13.00;11.50;21.60;37.00;;;;;;111121;1243;45553;-68
2023/03/29 02:45:16;;;;;;;;;11.00;10.00;21.60;37.10;;;;;;111142;1243;54930;-69
2023/03/29 02:47:47;;;;;;;;;11.00;10.00;21.60;37.10;;;;;;111189;1241;53566;-69
2023/03/29 02:50:14;;;;;;;;;10.00;8.75;21.60;37.00;;;;;;111183;1241;49108;-68
2023/03/29 02:52:54;;;;;;;;;11.00;10.00;21.60;36.80;;;;;;111141;1238;49586;-69
2023/03/29 02:55:23;;;;;;;;;11.00;9.75;21.50;36.70;;;;;;111277;1245;46047;-69
2023/03/29 02:57:50;;;;;;;;;11.67;10.67;21.60;36.60;;;;;;111263;1243;55207;-69
2023/03/29 03:00:18;;;;;;;;;12.67;11.00;21.50;36.40;;;;;;111179;1243;54439;-68
2023/03/29 03:02:46;;;;;;;;;10.75;9.50;21.50;36.40;;;;;;111255;1243;49208;-68
2023/03/29 03:05:14;;;;;;;;;11.75;10.25;21.50;36.40;;;;;;111353;1241;50251;-68
2023/03/29 03:07:41;;;;;;;;;12.00;10.00;21.50;36.30;;;;;;111114;1243;46754;-68
2023/03/29 03:10:09;;;;;;;;;10.75;9.00;21.40;36.30;;;;;;111397;1242;56119;-68
2023/03/29 03:12:37;;;;;;;;;11.00;10.00;21.40;36.80;;;;;;111440;1243;54124;-67
2023/03/29 03:15:04;;;;;;;;;10.25;9.00;21.40;36.80;;;;;;111285;1243;49110;-68
2023/03/29 03:17:32;;;;;;;;;11.50;9.75;21.40;36.20;;;;;;111235;1240;50067;-69
2023/03/29 03:19:59;;;;;;;;;10.75;9.75;21.40;36.20;;;;;;111143;1244;46110;-68
2023/03/29 03:22:26;;;;;;;;;12.75;9.25;21.40;36.20;;;;;;111193;1238;56226;-68
2023/03/29 03:24:53;;;;;;;;;12.50;10.75;21.40;36.20;;;;;;111257;1243;54925;-67
2023/03/29 03:27:20;;;;;;;;;12.00;10.67;21.40;36.10;;;;;;111221;1239;49306;-67
2023/03/29 03:29:48;;;;;;;;;11.75;9.75;21.30;36.30;;;;;;111333;1239;49643;-67
2023/03/29 03:32:15;;;;;;;;;11.75;10.50;21.30;36.10;;;;;;111213;1240;46128;-67
2023/03/29 03:34:42;;;;;;;;;11.00;9.75;21.30;36.10;;;;;;111160;1241;56116;-68
2023/03/29 03:37:10;;;;;;;;;14.50;11.50;21.30;36.00;;;;;;111202;1243;53531;-68
2023/03/29 03:39:37;;;;;;;;;12.00;10.00;21.20;35.90;;;;;;111304;1243;50403;-67
2023/03/29 03:42:05;;;;;;;;;11.00;9.75;21.20;35.90;;;;;;111232;1238;49602;-67
2023/03/29 03:44:31;;;;;;;;;12.00;10.00;21.20;35.50;;;;;;111183;1240;45931;-67
2023/03/29 03:46:58;;;;;;;;;12.00;11.00;21.20;35.90;;;;;;111203;1239;55161;-67
2023/03/29 03:49:25;;;;;;;;;11.75;10.00;21.20;36.00;;;;;;111395;1243;53321;-67
2023/03/29 03:51:52;;;;;;;;;13.75;11.50;21.20;36.10;;;;;;111281;1239;50535;-67
2023/03/29 03:54:19;;;;;;;;;11.00;10.00;21.10;36.10;;;;;;111148;1243;50510;-67
2023/03/29 03:56:47;;;;;;;;;13.67;11.67;21.10;36.10;;;;;;111530;1243;45341;-67
2023/03/29 03:59:14;;;;;;;;;12.67;11.00;21.10;36.00;;;;;;111166;1242;56003;-67
2023/03/29 04:01:42;;;;;;;;;12.75;11.00;21.10;36.00;;;;;;111167;1238;53981;-70
2023/03/29 04:04:10;;;;;;;;;12.00;10.50;21.10;36.10;;;;;;111249;1243;49414;-70
2023/03/29 04:06:37;;;;;;;;;12.75;10.00;21.10;36.10;;;;;;111442;1240;50281;-70
2023/03/29 04:09:04;;;;;;;;;11.00;9.75;21.10;36.20;;;;;;111285;1238;45626;-67
2023/03/29 04:11:32;;;;;;;;;14.00;11.00;21.10;36.00;;;;;;111234;1240;55280;-68
2023/03/29 04:13:59;;;;;;;;;13.67;11.00;21.10;36.40;;;;;;111182;1244;53613;-67
2023/03/29 04:16:27;;;;;;;;;17.00;15.67;21.10;35.80;;;;;;111194;1238;49043;-67
2023/03/29 04:18:54;;;;;;;;;19.00;14.00;21.10;38.60;;;;;;111103;1244;49560;-65
2023/03/29 04:21:21;;;;;;;;;19.25;16.00;21.10;39.10;;;;;;111255;1238;45364;-65
2023/03/29 04:23:48;;;;;;;;;53.67;38.00;21.10;39.30;;;;;;111194;1244;56312;-67
2023/03/29 04:26:16;;;;;;;;;54.25;36.00;21.20;43.70;;;;;;111229;1239;54019;-61
2023/03/29 04:28:43;;;;;;;;;45.50;31.50;21.20;43.50;;;;;;111128;1238;49424;-64
2023/03/29 04:31:11;;;;;;;;;42.25;29.25;21.20;43.10;;;;;;111092;1243;49954;-63
2023/03/29 04:33:38;;;;;;;;;32.67;25.00;21.20;42.70;;;;;;111254;1243;45604;-61
2023/03/29 04:36:06;;;;;;;;;38.33;25.33;21.20;42.60;;;;;;111132;1238;55304;-62
2023/03/29 04:38:36;;;;;;;;;32.00;23.50;21.30;42.20;;;;;;111180;1238;53632;-62
2023/03/29 04:41:04;;;;;;;;;33.00;24.50;21.30;42.00;;;;;;111374;1243;50210;-60
2023/03/29 04:43:31;;;;;;;;;26.50;22.25;21.30;41.90;;;;;;111141;1241;49924;-60
2023/03/29 04:45:58;;;;;;;;;28.25;19.25;21.30;41.50;;;;;;111221;1242;45813;-61
2023/03/29 04:48:25;;;;;;;;;27.50;19.00;21.40;41.30;;;;;;111087;1242;55445;-59
2023/03/29 04:50:53;;;;;;;;;31.00;22.00;21.40;41.30;;;;;;111206;1238;53295;-59
2023/03/29 04:53:21;;;;;;;;;26.33;19.33;21.30;40.80;;;;;;111327;1239;49120;-59
2023/03/29 04:55:48;;;;;;;;;26.25;20.00;21.30;40.60;;;;;;111387;1243;49029;-59
2023/03/29 04:58:15;;;;;;;;;35.00;24.25;21.20;40.20;;;;;;111247;1240;46420;-59
2023/03/29 05:00:42;;;;;;;;;27.33;21.00;21.10;40.00;;;;;;111172;1243;55704;-58
2023/03/29 05:03:13;;;;;;;;;25.00;22.67;21.10;40.10;;;;;;111543;1238;54863;-59
2023/03/29 05:05:40;;;;;;;;;30.50;18.25;21.00;39.70;;;;;;111202;1242;49422;-59
2023/03/29 05:08:08;;;;;;;;;29.50;19.25;21.00;39.50;;;;;;111163;1240;49421;-59
2023/03/29 05:10:35;;;;;;;;;22.75;18.00;20.90;39.30;;;;;;111193;1238;45238;-65
2023/03/29 05:13:02;;;;;;;;;24.67;17.00;20.80;39.10;;;;;;110940;1240;55988;-59
2023/03/29 05:15:30;;;;;;;;;23.25;20.00;20.80;39.00;;;;;;111196;1238;54442;-59
2023/03/29 05:17:57;;;;;;;;;20.25;17.50;20.80;38.90;;;;;;111215;1242;50154;-60
2023/03/29 05:20:24;;;;;;;;;26.75;20.00;20.70;38.70;;;;;;111339;1238;49018;-61
2023/03/29 05:22:52;;;;;;;;;24.33;21.67;20.70;38.60;;;;;;111063;1240;46716;-60
2023/03/29 05:25:19;;;;;;;;;25.00;21.25;20.60;38.50;;;;;;111117;1243;56736;-60
2023/03/29 05:27:46;;;;;;;;;21.50;18.00;20.60;38.40;;;;;;111198;1243;53986;-62
2023/03/29 05:30:14;;;;;;;;;25.00;18.67;20.60;38.30;;;;;;111276;1240;50360;-61
2023/03/29 05:32:42;;;;;;;;;30.25;22.75;20.50;38.40;;;;;;111171;1240;49931;-61
2023/03/29 05:35:10;;;;;;;;;27.75;19.75;20.40;38.40;;;;;;113249;1242;45632;-62
2023/03/29 05:37:37;;;;;;;;;28.50;20.25;20.40;38.30;;;;;;111530;1243;55738;-61
2023/03/29 05:40:07;;;;;;;;;25.25;21.75;20.60;38.10;;;;;;111211;1240;54652;-61
2023/03/29 05:42:34;;;;;;;;;27.00;20.75;20.60;37.80;;;;;;112195;1242;49032;-61
2023/03/29 05:45:01;;;;;;;;;30.00;18.50;20.60;37.70;;;;;;111155;1239;49055;-61
2023/03/29 05:47:28;;;;;;;;;18.00;16.00;20.60;37.60;;;;;;111072;1243;46078;-63
2023/03/29 05:49:56;;;;;;;;;26.00;19.00;20.50;37.60;;;;;;111346;1244;56169;-61
2023/03/29 05:52:23;;;;;;;;;26.67;20.67;20.50;37.50;;;;;;111377;1238;53475;-63
2023/03/29 05:54:50;;;;;;;;;18.00;16.00;20.40;37.50;;;;;;111186;1238;49613;-61
2023/03/29 05:57:17;;;;;;;;;27.33;17.67;20.30;37.40;;;;;;111211;1243;49161;-61
2023/03/29 05:59:44;;;;;;;;;35.00;19.00;20.20;37.20;;;;;;111292;1243;45544;-60
2023/03/29 06:02:11;;;;;;;;;24.67;20.33;20.20;37.40;;;;;;111188;1238;55690;-61
2023/03/29 06:04:38;;;;;;;;;18.25;16.50;20.10;37.40;;;;;;111215;1244;54117;-60
2023/03/29 06:07:05;;;;;;;;;26.00;19.67;20.10;37.40;;;;;;111156;1243;49434;-61
2023/03/29 06:09:33;;;;;;;;;21.75;19.00;20.10;37.40;;;;;;111152;1243;49285;-61
2023/03/29 06:12:00;;;;;;;;;20.00;15.25;20.00;37.80;;;;;;111152;1238;45767;-61
2023/03/29 06:14:27;;;;;;;;;19.50;12.75;20.00;37.50;;;;;;111226;1238;55787;-61
2023/03/29 06:16:55;;;;;;;;;25.00;18.00;20.00;37.50;;;;;;111225;1243;53598;-61
2023/03/29 06:19:22;;;;;;;;;19.00;15.00;19.90;37.10;;;;;;111185;1243;49510;-60
2023/03/29 06:21:51;;;;;;;;;22.67;16.00;19.90;37.20;;;;;;111404;1242;49134;-61
2023/03/29 06:24:19;;;;;;;;;23.00;19.33;19.90;37.70;;;;;;111221;1238;45408;-60
2023/03/29 06:26:46;;;;;;;;;20.00;15.00;19.80;37.00;;;;;;111221;1244;55918;-61
2023/03/29 06:29:13;;;;;;;;;24.25;19.75;19.80;37.00;;;;;;111197;1239;53534;-61
2023/03/29 06:31:40;;;;;;;;;19.00;17.75;19.80;37.10;;;;;;111267;1238;49385;-61
2023/03/29 06:34:07;;;;;;;;;21.75;15.00;19.80;37.00;;;;;;111247;1238;49349;-60
2023/03/29 06:36:34;;;;;;;;;24.00;16.75;19.70;36.90;;;;;;111225;1242;45691;-61
2023/03/29 06:39:02;;;;;;;;;26.00;16.50;19.70;36.90;;;;;;111368;1243;56278;-61
2023/03/29 06:41:30;;;;;;;;;19.67;17.33;19.70;36.90;;;;;;111210;1243;54401;-61
2023/03/29 06:43:57;;;;;;;;;23.00;16.00;19.60;36.80;;;;;;111185;1238;49134;-61
2023/03/29 06:46:24;;;;;;;;;21.25;15.00;19.60;36.80;;;;;;111185;1245;49150;-61
2023/03/29 06:48:52;;;;;;;;;17.75;13.50;19.60;36.70;;;;;;111225;1238;45956;-62
2023/03/29 06:51:19;;;;;;;;;25.25;15.50;19.60;36.70;;;;;;111225;1243;55361;-61
2023/03/29 06:53:46;;;;;;;;;21.25;15.25;19.60;36.90;;;;;;111194;1243;53961;-60
2023/03/29 06:56:13;;;;;;;;;22.00;15.67;19.60;36.90;;;;;;111186;1243;50201;-61
2023/03/29 06:58:40;;;;;;;;;21.25;18.00;19.50;36.40;;;;;;111178;1238;50504;-61
2023/03/29 07:01:07;;;;;;;;;20.00;19.00;19.50;36.60;;;;;;111229;1245;45128;-61
2023/03/29 07:03:35;;;;;;;;;19.00;16.67;19.50;36.60;;;;;;111217;1243;55963;-61
2023/03/29 07:06:08;;;;;;;;;18.25;14.00;19.50;36.60;;;;;;111187;1243;53704;-60
2023/03/29 07:08:45;;;;;;;;;22.33;18.67;19.50;36.50;;;;;;111170;1241;49773;-61
2023/03/29 07:11:14;;;;;;;;;18.00;14.00;19.40;36.40;;;;;;111249;1239;48798;-60
2023/03/29 07:13:42;;;;;;;;;18.00;17.00;19.40;36.60;;;;;;111235;1238;46005;-61
2023/03/29 07:16:11;;;;;;;;;17.50;15.00;19.40;36.60;;;;;;111236;1240;55808;-61
2023/03/29 07:18:42;;;;;;;;;21.00;17.50;19.40;36.40;;;;;;111208;1241;53244;-61
2023/03/29 07:21:11;;;;;;;;;19.25;15.00;19.40;36.50;;;;;;110367;1244;1226561;-62
2023/03/29 07:23:38;;;;;;;;;22.00;18.50;19.40;36.40;;;;;;111233;1243;50407;-61
2023/03/29 07:26:06;;;;;;;;;21.00;16.00;19.40;36.50;;;;;;111196;1238;45511;-62
2023/03/29 07:28:36;;;;;;;;;19.00;15.75;19.40;36.30;;;;;;111228;1243;55643;-61
2023/03/29 07:31:05;;;;;;;;;16.75;13.00;19.40;36.40;;;;;;111242;1242;54092;-61
2023/03/29 07:33:33;;;;;;;;;16.50;15.25;19.40;36.40;;;;;;111316;1238;49890;-62
2023/03/29 07:36:00;;;;;;;;;25.50;16.50;19.40;36.30;;;;;;111329;1240;49226;-62
2023/03/29 07:38:28;;;;;;;;;17.50;14.50;19.40;36.20;;;;;;111468;1238;45900;-61
2023/03/29 07:40:55;;;;;;;;;18.75;17.00;19.40;36.20;;;;;;111383;1238;56577;-62
2023/03/29 07:43:22;;;;;;;;;17.75;14.00;19.40;36.20;;;;;;111222;1238;53899;-60
2023/03/29 07:45:51;;;;;;;;;17.25;13.00;19.40;36.20;;;;;;111174;1245;49598;-60
2023/03/29 07:48:18;;;;;;;;;16.33;14.00;19.40;36.20;;;;;;111219;1238;49296;-61
2023/03/29 07:50:45;;;;;;;;;16.00;13.00;19.40;36.20;;;;;;111194;1238;45888;-61
2023/03/29 07:53:12;;;;;;;;;16.00;14.33;19.40;36.30;;;;;;111177;1238;55064;-61
2023/03/29 07:55:45;;;;;;;;;21.33;14.00;19.40;36.10;;;;;;111176;1240;54121;-61
2023/03/29 07:58:13;;;;;;;;;16.25;14.75;19.40;36.00;;;;;;111207;1242;49177;-61
2023/03/29 08:00:40;;;;;;;;;19.25;14.00;19.40;36.20;;;;;;111265;1240;50568;-61
2023/03/29 08:03:10;;;;;;;;;21.00;13.00;19.40;36.00;;;;;;111551;1242;45759;-61
2023/03/29 08:05:37;;;;;;;;;18.00;14.00;19.40;36.20;;;;;;111295;1243;56734;-60
2023/03/29 08:08:05;;;;;;;;;15.00;13.00;19.50;35.90;;;;;;111344;1241;55282;-61
2023/03/29 08:10:33;;;;;;;;;17.00;14.33;19.50;35.90;;;;;;111203;1238;49775;-61
2023/03/29 08:13:06;;;;;;;;;19.75;15.00;19.50;35.90;;;;;;111209;1241;50383;-61
2023/03/29 08:15:34;;;;;;;;;15.00;12.00;19.50;35.80;;;;;;111302;1238;46565;-61
2023/03/29 08:18:01;;;;;;;;;16.50;12.50;19.50;35.70;;;;;;111248;1243;55510;-61
2023/03/29 08:20:28;;;;;;;;;18.75;13.00;19.50;35.70;;;;;;111214;1243;53367;-60
2023/03/29 08:22:55;;;;;;;;;14.00;12.33;19.50;35.70;;;;;;111420;1244;49524;-61
2023/03/29 08:25:22;;;;;;;;;20.33;15.00;19.50;35.60;;;;;;111492;1238;49528;-60
2023/03/29 08:27:50;;;;;;;;;14.00;12.75;19.50;35.60;;;;;;111468;1242;46029;-61
2023/03/29 08:30:17;;;;;;;;;18.75;14.75;19.50;35.70;;;;;;111481;1243;55080;-60
2023/03/29 08:32:43;;;;;;;;;14.00;13.00;19.50;35.90;;;;;;111393;1243;53477;-60
2023/03/29 08:35:11;;;;;;;;;17.33;14.00;19.50;35.60;;;;;;111347;1243;49092;-61
2023/03/29 08:37:38;;;;;;;;;14.00;13.00;19.50;35.70;;;;;;111428;1243;49631;-59
2023/03/29 08:40:05;;;;;;;;;18.75;13.00;19.60;35.50;;;;;;111469;1238;45724;-61
2023/03/29 08:42:43;;;;;;;;;15.33;12.00;19.50;35.40;;;;;;111391;1238;56499;-60
2023/03/29 08:45:37;;;;;;;;;15.00;12.50;19.50;35.50;;;;;;111510;1241;53811;-61
2023/03/29 08:48:20;;;;;;;;;17.00;13.67;19.50;35.40;;;;;;111424;1238;49697;-60
2023/03/29 08:50:53;;;;;;;;;14.00;12.75;19.50;35.40;;;;;;111395;1240;50034;-61
2023/03/29 08:53:43;;;;;;;;;15.25;13.00;19.50;35.40;;;;;;111319;1240;45315;-61
2023/03/29 08:56:14;;;;;;;;;20.33;13.00;19.50;35.60;;;;;;111525;1242;55838;-63
2023/03/29 08:58:42;;;;;;;;;15.00;12.00;19.60;35.40;;;;;;111506;1238;54790;-63
2023/03/29 09:01:10;;;;;;;;;17.50;16.00;19.60;35.40;;;;;;111386;1238;50284;-59
2023/03/29 09:03:42;;;;;;;;;14.50;13.00;19.60;35.40;;;;;;111185;1239;48927;-61
2023/03/29 09:06:11;;;;;;;;;15.00;12.00;19.60;35.40;;;;;;111170;1243;46794;-61
2023/03/29 09:08:41;;;;;;;;;16.50;13.75;19.60;35.30;;;;;;111387;1243;56556;-60
2023/03/29 09:11:22;;;;;;;;;14.50;12.75;19.60;35.30;;;;;;111455;1240;54453;-60
2023/03/29 09:14:14;;;;;;;;;20.75;15.00;19.60;35.30;;;;;;111439;1242;49835;-60
2023/03/29 09:17:00;;;;;;;;;14.50;12.25;19.60;35.20;;;;;;111454;1243;49796;-60
2023/03/29 09:19:44;;;;;;;;;19.00;14.00;19.60;35.30;;;;;;111375;1239;45815;-61
2023/03/29 09:22:43;;;;;;;;;15.00;12.00;19.70;35.50;;;;;;111421;1238;56748;-60
2023/03/29 09:25:29;;;;;;;;;16.00;13.00;19.70;35.30;;;;;;111450;1243;54433;-60
2023/03/29 09:28:05;;;;;;;;;15.00;13.25;19.80;35.30;;;;;;111420;1243;49897;-60
2023/03/29 09:30:58;;;;;;;;;16.25;11.00;19.90;35.30;;;;;;111339;1243;49639;-61
2023/03/29 09:33:36;;;;;;;;;16.00;11.50;20.00;35.20;;;;;;111306;1243;46849;-62
2023/03/29 09:36:29;;;;;;;;;18.25;13.25;20.10;35.20;;;;;;111381;1240;56008;-61
2023/03/29 09:38:56;;;;;;;;;14.33;13.00;20.20;35.00;;;;;;111086;1238;54128;-63
2023/03/29 09:41:40;;;;;;;;;13.75;11.25;20.30;35.00;;;;;;111350;1239;49690;-64
2023/03/29 09:44:23;;;;;;;;;12.50;10.75;20.40;34.90;;;;;;111226;1239;48746;-63
2023/03/29 09:46:55;;;;;;;;;12.25;11.00;20.50;35.10;;;;;;111219;1243;46849;-61
2023/03/29 09:49:27;;;;;;;;;16.00;13.00;20.60;34.80;;;;;;111341;1238;55603;-59
2023/03/29 09:51:58;;;;;;;;;14.25;13.00;20.60;34.80;;;;;;111254;1240;53401;-61
2023/03/29 09:54:25;;;;;;;;;15.00;12.00;20.70;34.90;;;;;;111288;1244;49852;-61
2023/03/29 09:56:52;;;;;;;;;13.50;10.75;20.80;34.70;;;;;;111243;1242;49017;-64
2023/03/29 09:59:19;;;;;;;;;12.25;10.25;20.80;34.60;;;;;;111503;1239;46862;-63
2023/03/29 10:01:47;;;;;;;;;12.00;10.00;20.90;34.70;;;;;;111475;1238;55216;-61
2023/03/29 10:04:15;;;;;;;;;14.00;12.00;20.90;34.60;;;;;;111259;1240;54009;-61
2023/03/29 10:06:49;;;;;;;;;11.00;10.00;21.00;34.80;;;;;;111526;1239;50081;-60
2023/03/29 10:09:20;;;;;;;;;14.00;10.67;21.10;34.60;;;;;;111427;1241;50530;-60
2023/03/29 10:12:01;;;;;;;;;13.00;11.00;21.10;34.50;;;;;;111478;1243;45526;-60
2023/03/29 10:14:32;;;;;;;;;16.25;12.00;21.20;34.70;;;;;;111490;1243;55650;-60
2023/03/29 10:16:59;;;;;;;;;15.00;12.00;21.30;34.50;;;;;;111418;1240;54098;-60
2023/03/29 10:19:29;;;;;;;;;11.67;10.33;21.40;34.50;;;;;;111411;1238;50400;-61
2023/03/29 10:21:59;;;;;;;;;14.00;12.75;21.40;34.40;;;;;;111401;1243;50179;-60
2023/03/29 10:24:26;;;;;;;;;12.75;11.75;21.50;34.40;;;;;;111517;1243;46556;-61
2023/03/29 10:26:57;;;;;;;;;15.75;14.00;21.60;34.40;;;;;;111436;1245;55023;-61
2023/03/29 10:29:25;;;;;;;;;12.00;10.50;21.60;34.50;;;;;;111193;1238;54911;-60
2023/03/29 10:31:52;;;;;;;;;14.25;13.00;21.70;34.60;;;;;;111241;1243;49462;-61
2023/03/29 10:34:24;;;;;;;;;13.50;10.75;21.70;34.30;;;;;;111263;1243;49658;-61
2023/03/29 10:36:57;;;;;;;;;13.75;11.00;21.70;34.20;;;;;;111172;1244;45639;-61
2023/03/29 10:39:27;;;;;;;;;12.50;11.00;21.70;34.20;;;;;;111203;1244;55942;-60
2023/03/29 10:41:54;;;;;;;;;13.33;10.00;21.70;34.20;;;;;;111205;1240;54132;-60
2023/03/29 10:44:26;;;;;;;;;12.50;10.00;21.80;34.20;;;;;;111143;1243;49749;-60
2023/03/29 10:46:53;;;;;;;;;10.00;8.75;21.80;34.20;;;;;;111198;1240;49095;-61
2023/03/29 10:49:21;;;;;;;;;12.00;10.75;21.80;34.20;;;;;;111186;1241;45339;-61
2023/03/29 10:51:49;;;;;;;;;13.00;11.50;21.80;34.20;;;;;;111286;1243;56467;-60
2023/03/29 10:54:23;;;;;;;;;11.75;9.25;21.80;34.10;;;;;;111370;1243;53670;-61
2023/03/29 10:56:57;;;;;;;;;12.00;10.25;21.80;34.30;;;;;;111179;1238;49745;-61
2023/03/29 10:59:57;;;;;;;;;10.75;9.75;21.80;34.10;;;;;;111175;1244;49748;-61
2023/03/29 11:02:52;;;;;;;;;12.00;10.33;21.90;34.20;;;;;;111478;1243;45940;-60
2023/03/29 11:05:32;;;;;;;;;13.00;10.00;21.90;34.20;;;;;;111228;1243;56631;-61
2023/03/29 11:08:10;;;;;;;;;13.00;11.67;22.00;34.10;;;;;;111203;1243;53920;-61
2023/03/29 11:10:37;;;;;;;;;15.00;12.00;22.00;33.90;;;;;;111328;1243;50771;-61
2023/03/29 11:13:33;;;;;;;;;12.33;9.67;22.00;33.90;;;;;;111264;1241;49293;-60
2023/03/29 11:16:17;;;;;;;;;13.25;10.50;22.00;34.00;;;;;;111306;1243;47004;-61
2023/03/29 11:19:02;;;;;;;;;13.00;11.75;22.00;33.90;;;;;;111200;1239;56380;-61
2023/03/29 11:21:48;;;;;;;;;11.75;10.00;22.10;34.20;;;;;;111326;1243;54070;-61
2023/03/29 11:24:34;;;;;;;;;11.75;10.00;22.10;33.90;;;;;;111172;1238;49446;-63
2023/03/29 11:27:11;;;;;;;;;15.25;11.00;22.10;33.90;;;;;;111169;1243;49467;-61
2023/03/29 11:30:01;;;;;;;;;11.75;10.75;22.10;34.10;;;;;;111433;1240;45925;-62
2023/03/29 11:32:30;;;;;;;;;12.00;11.00;22.10;34.10;;;;;;111416;1242;55324;-61
2023/03/29 11:35:16;;;;;;;;;10.50;9.00;22.10;33.90;;;;;;111277;1241;53889;-61
2023/03/29 11:38:35;;;;;;;;;12.00;10.75;22.10;34.20;;;;;;111492;1243;49685;-62
2023/03/29 11:41:14;;;;;;;;;11.00;10.00;22.10;33.90;;;;;;110961;1241;49501;-60
2023/03/29 11:44:03;;;;;;;;;15.75;9.25;22.20;34.20;;;;;;111300;1239;47595;-61
2023/03/29 11:46:43;;;;;;;;;11.25;9.75;22.30;33.80;;;;;;111433;1238;55711;-61
2023/03/29 11:49:31;;;;;;;;;12.00;10.75;22.30;33.80;;;;;;111341;1240;53259;-60
2023/03/29 11:52:03;;;;;;;;;14.00;12.25;22.30;33.80;;;;;;111314;1242;49960;-60
2023/03/29 11:54:45;;;;;;;;;12.00;10.00;22.30;33.80;;;;;;111473;1243;49665;-60
2023/03/29 11:57:27;;;;;;;;;11.00;10.00;22.30;33.90;;;;;;111525;1243;45791;-61
2023/03/29 12:00:04;;;;;;;;;13.00;9.25;22.30;33.70;;;;;;111389;1242;55848;-60
2023/03/29 12:02:36;;;;;;;;;12.75;10.75;22.20;33.60;;;;;;111373;1243;53294;-61
2023/03/29 12:05:22;;;;;;;;;10.50;9.25;22.20;33.70;;;;;;111311;1238;48912;-60
2023/03/29 12:07:58;;;;;;;;;10.00;9.00;22.20;33.50;;;;;;111276;1239;49510;-60
2023/03/29 12:10:42;;;;;;;;;10.75;9.75;22.30;33.60;;;;;;111257;1238;45768;-61
2023/03/29 12:13:18;;;;;;;;;10.00;8.75;22.30;33.50;;;;;;111267;1243;56524;-61
2023/03/29 12:15:51;;;;;;;;;10.25;8.75;22.30;33.50;;;;;;111277;1241;53550;-60
2023/03/29 12:18:29;;;;;;;;;11.00;9.50;22.40;33.70;;;;;;111322;1238;50502;-60
2023/03/29 12:20:59;;;;;;;;;10.75;9.75;22.40;33.50;;;;;;111235;1243;49409;-60
2023/03/29 12:23:30;;;;;;;;;11.25;10.00;22.50;33.60;;;;;;111108;1245;45882;-61
2023/03/29 12:26:19;;;;;;;;;11.00;9.00;22.60;33.50;;;;;;111327;1241;55180;-61
2023/03/29 12:29:31;;;;;;;;;11.00;9.67;22.70;34.00;;;;;;111294;1238;54446;-60
2023/03/29 12:32:23;;;;;;;;;10.75;9.00;22.70;33.30;;;;;;111214;1239;50372;-60
2023/03/29 12:35:02;;;;;;;;;12.25;9.75;22.80;33.30;;;;;;111137;1243;49750;-60
2023/03/29 12:37:31;;;;;;;;;10.75;9.00;22.80;33.10;;;;;;111290;1243;46527;-61
2023/03/29 12:40:19;;;;;;;;;11.75;9.25;22.80;33.50;;;;;;111447;1244;55285;-62
2023/03/29 12:43:04;;;;;;;;;10.75;9.75;22.90;33.10;;;;;;111183;1238;53785;-62
2023/03/29 12:45:35;;;;;;;;;10.75;8.75;22.90;33.10;;;;;;111167;1243;50182;-60